sensor_id;sensor_type;location;lat;lon;timestamp;P1;durP1;ratioP1;P2;durP2;ratioP2
69369;SDS011;56530;42.640;23.372;2023-11-19T09:03:36;4.63;;;4.20;;
69369;SDS011;56530;42.640;23.372;2023-11-19T09:06:02;5.80;;;3.67;;
69369;SDS011;56530;42.640;23.372;2023-11-19T09:08:27;4.00;;;3.57;;
69369;SDS011;56530;42.640;23.372;2023-11-19T09:10:53;3.67;;;3.30;;
69369;SDS011;56530;42.640;23.372;2023-11-19T09:13:18;4.97;;;3.17;;
69369;SDS011;56530;42.640;23.372;2023-11-19T09:15:44;3.90;;;3.60;;
69369;SDS011;56530;42.640;23.372;2023-11-19T09:18:09;3.90;;;3.60;;
69369;SDS011;56530;42.640;23.372;2023-11-19T09:20:34;3.17;;;2.97;;
69369;SDS011;56530;42.640;23.372;2023-11-19T09:23:03;3.47;;;3.17;;
69369;SDS011;56530;42.640;23.372;2023-11-19T09:25:30;3.67;;;3.37;;
69369;SDS011;56530;42.640;23.372;2023-11-19T09:27:55;3.77;;;3.47;;
69369;SDS011;56530;42.640;23.372;2023-11-19T09:30:21;3.97;;;3.63;;
69369;SDS011;56530;42.640;23.372;2023-11-19T09:32:47;4.03;;;3.73;;
69369;SDS011;56530;42.640;23.372;2023-11-19T09:35:13;4.03;;;3.40;;
69369;SDS011;56530;42.640;23.372;2023-11-19T09:37:39;3.63;;;3.33;;
69369;SDS011;56530;42.640;23.372;2023-11-19T09:40:05;3.63;;;3.33;;
69369;SDS011;56530;42.640;23.372;2023-11-19T09:42:38;3.93;;;3.53;;
69369;SDS011;56530;42.640;23.372;2023-11-19T09:45:15;4.03;;;3.73;;
69369;SDS011;56530;42.640;23.372;2023-11-19T09:47:43;4.00;;;3.70;;
69369;SDS011;56530;42.640;23.372;2023-11-19T09:50:10;3.87;;;3.57;;
69369;SDS011;56530;42.640;23.372;2023-11-19T09:52:41;3.40;;;3.20;;
69369;SDS011;56530;42.640;23.372;2023-11-19T09:55:07;3.57;;;3.27;;
69369;SDS011;56530;42.640;23.372;2023-11-19T09:57:33;4.00;;;3.70;;
69369;SDS011;56530;42.640;23.372;2023-11-19T10:00:00;3.23;;;3.03;;
69369;SDS011;56530;42.640;23.372;2023-11-19T10:02:26;4.17;;;3.10;;
69369;SDS011;56530;42.640;23.372;2023-11-19T10:04:54;3.63;;;3.33;;
69369;SDS011;56530;42.640;23.372;2023-11-19T10:07:20;4.77;;;3.40;;
69369;SDS011;56530;42.640;23.372;2023-11-19T10:09:46;3.70;;;3.40;;
69369;SDS011;56530;42.640;23.372;2023-11-19T10:12:12;3.13;;;2.93;;
69369;SDS011;56530;42.640;23.372;2023-11-19T10:14:38;3.47;;;3.17;;
69369;SDS011;56530;42.640;23.372;2023-11-19T10:17:04;6.47;;;5.87;;
69369;SDS011;56530;42.640;23.372;2023-11-19T10:19:32;3.10;;;2.90;;
69369;SDS011;56530;42.640;23.372;2023-11-19T10:22:02;3.03;;;2.83;;
69369;SDS011;56530;42.640;23.372;2023-11-19T10:24:32;3.93;;;2.60;;
69369;SDS011;56530;42.640;23.372;2023-11-19T10:27:01;3.27;;;2.97;;
69369;SDS011;56530;42.640;23.372;2023-11-19T10:29:29;3.50;;;3.30;;
69369;SDS011;56530;42.640;23.372;2023-11-19T10:31:58;3.60;;;3.30;;
69369;SDS011;56530;42.640;23.372;2023-11-19T10:34:25;4.03;;;2.90;;
69369;SDS011;56530;42.640;23.372;2023-11-19T10:36:51;2.93;;;2.73;;
69369;SDS011;56530;42.640;23.372;2023-11-19T10:39:16;2.60;;;2.40;;
69369;SDS011;56530;42.640;23.372;2023-11-19T10:41:43;2.73;;;2.53;;
69369;SDS011;56530;42.640;23.372;2023-11-19T10:44:08;2.70;;;2.50;;
69369;SDS011;56530;42.640;23.372;2023-11-19T10:46:40;3.70;;;3.40;;
69369;SDS011;56530;42.640;23.372;2023-11-19T10:49:07;3.80;;;3.37;;
69369;SDS011;56530;42.640;23.372;2023-11-19T10:51:33;2.70;;;2.50;;
69369;SDS011;56530;42.640;23.372;2023-11-19T10:54:01;6.10;;;2.67;;
69369;SDS011;56530;42.640;23.372;2023-11-19T10:56:31;2.80;;;2.60;;
69369;SDS011;56530;42.640;23.372;2023-11-19T10:58:57;2.77;;;2.57;;
69369;SDS011;56530;42.640;23.372;2023-11-19T11:01:25;2.90;;;2.70;;
69369;SDS011;56530;42.640;23.372;2023-11-19T11:03:55;3.00;;;2.80;;
69369;SDS011;56530;42.640;23.372;2023-11-19T11:06:21;3.47;;;3.00;;
69369;SDS011;56530;42.640;23.372;2023-11-19T11:08:47;2.70;;;2.50;;
69369;SDS011;56530;42.640;23.372;2023-11-19T11:11:15;2.60;;;2.40;;
69369;SDS011;56530;42.640;23.372;2023-11-19T11:13:42;3.00;;;2.80;;
69369;SDS011;56530;42.640;23.372;2023-11-19T11:16:08;2.60;;;2.40;;
69369;SDS011;56530;42.640;23.372;2023-11-19T11:18:33;8.67;;;6.90;;
69369;SDS011;56530;42.640;23.372;2023-11-19T11:21:09;2.83;;;2.50;;
69369;SDS011;56530;42.640;23.372;2023-11-19T11:35:01;2.90;;;2.70;;
69369;SDS011;56530;42.640;23.372;2023-11-19T11:37:44;2.53;;;2.43;;
69369;SDS011;56530;42.640;23.372;2023-11-19T11:40:15;3.13;;;2.83;;
69369;SDS011;56530;42.640;23.372;2023-11-19T11:42:41;2.63;;;2.42;;
69369;SDS011;56530;42.640;23.372;2023-11-19T11:45:13;3.17;;;2.97;;
69369;SDS011;56530;42.640;23.372;2023-11-19T11:50:09;2.90;;;2.70;;
69369;SDS011;56530;42.640;23.372;2023-11-19T11:55:26;3.05;;;2.75;;
69369;SDS011;56530;42.640;23.372;2023-11-19T11:58:01;2.70;;;2.50;;
69369;SDS011;56530;42.640;23.372;2023-11-19T12:03:03;3.35;;;3.05;;
69369;SDS011;56530;42.640;23.372;2023-11-19T12:05:29;3.10;;;2.90;;
69369;SDS011;56530;42.640;23.372;2023-11-19T12:07:56;2.77;;;2.57;;
69369;SDS011;56530;42.640;23.372;2023-11-19T12:10:23;3.00;;;2.80;;
69369;SDS011;56530;42.640;23.372;2023-11-19T12:12:49;3.83;;;3.53;;
69369;SDS011;56530;42.640;23.372;2023-11-19T12:15:18;3.83;;;3.50;;
69369;SDS011;56530;42.640;23.372;2023-11-19T12:17:48;3.53;;;3.23;;
69369;SDS011;56530;42.640;23.372;2023-11-19T12:20:15;3.60;;;3.27;;
69369;SDS011;56530;42.640;23.372;2023-11-19T12:22:41;3.80;;;3.50;;
69369;SDS011;56530;42.640;23.372;2023-11-19T12:25:08;3.67;;;3.38;;
69369;SDS011;56530;42.640;23.372;2023-11-19T12:27:35;5.18;;;3.78;;
69369;SDS011;56530;42.640;23.372;2023-11-19T12:30:01;3.70;;;3.42;;
69369;SDS011;56530;42.640;23.372;2023-11-19T12:32:39;3.17;;;2.97;;
69369;SDS011;56530;42.640;23.372;2023-11-19T12:35:05;2.90;;;2.67;;
69369;SDS011;56530;42.640;23.372;2023-11-19T12:37:31;2.92;;;2.72;;
69369;SDS011;56530;42.640;23.372;2023-11-19T12:39:57;3.13;;;2.92;;
69369;SDS011;56530;42.640;23.372;2023-11-19T12:42:38;3.80;;;3.53;;
69369;SDS011;56530;42.640;23.372;2023-11-19T12:45:04;3.77;;;3.10;;
69369;SDS011;56530;42.640;23.372;2023-11-19T12:47:30;4.25;;;3.40;;
69369;SDS011;56530;42.640;23.372;2023-11-19T12:49:58;3.03;;;2.83;;
69369;SDS011;56530;42.640;23.372;2023-11-19T12:52:24;3.95;;;3.55;;
69369;SDS011;56530;42.640;23.372;2023-11-19T12:54:50;4.20;;;3.80;;
69369;SDS011;56530;42.640;23.372;2023-11-19T12:57:16;3.33;;;3.13;;
69369;SDS011;56530;42.640;23.372;2023-11-19T12:59:41;3.85;;;3.40;;
69369;SDS011;56530;42.640;23.372;2023-11-19T13:02:08;3.72;;;3.42;;
69369;SDS011;56530;42.640;23.372;2023-11-19T13:04:33;3.45;;;3.15;;
69369;SDS011;56530;42.640;23.372;2023-11-19T13:07:00;3.47;;;3.17;;
69369;SDS011;56530;42.640;23.372;2023-11-19T13:09:29;4.18;;;3.80;;
69369;SDS011;56530;42.640;23.372;2023-11-19T13:11:55;4.68;;;3.55;;
69369;SDS011;56530;42.640;23.372;2023-11-19T13:14:35;3.85;;;3.42;;
69369;SDS011;56530;42.640;23.372;2023-11-19T13:17:02;3.88;;;3.58;;
69369;SDS011;56530;42.640;23.372;2023-11-19T13:19:27;3.75;;;3.45;;
69369;SDS011;56530;42.640;23.372;2023-11-19T13:21:52;4.00;;;3.70;;
69369;SDS011;56530;42.640;23.372;2023-11-19T13:24:18;3.70;;;3.40;;
69369;SDS011;56530;42.640;23.372;2023-11-19T13:26:43;3.13;;;2.88;;
69369;SDS011;56530;42.640;23.372;2023-11-19T13:29:09;5.35;;;3.55;;
69369;SDS011;56530;42.640;23.372;2023-11-19T13:31:35;4.78;;;4.40;;
69369;SDS011;56530;42.640;23.372;2023-11-19T13:34:01;4.00;;;3.70;;
69369;SDS011;56530;42.640;23.372;2023-11-19T13:36:26;4.17;;;3.77;;
69369;SDS011;56530;42.640;23.372;2023-11-19T13:38:51;4.60;;;4.20;;
69369;SDS011;56530;42.640;23.372;2023-11-19T13:41:23;3.70;;;3.40;;
69369;SDS011;56530;42.640;23.372;2023-11-19T13:43:50;3.75;;;3.45;;
69369;SDS011;56530;42.640;23.372;2023-11-19T13:46:15;4.47;;;4.07;;
69369;SDS011;56530;42.640;23.372;2023-11-19T13:48:41;3.75;;;3.45;;
69369;SDS011;56530;42.640;23.372;2023-11-19T13:51:06;4.50;;;4.10;;
69369;SDS011;56530;42.640;23.372;2023-11-19T13:53:32;4.43;;;3.78;;
69369;SDS011;56530;42.640;23.372;2023-11-19T13:55:58;4.10;;;3.80;;
69369;SDS011;56530;42.640;23.372;2023-11-19T13:58:23;3.70;;;3.42;;
69369;SDS011;56530;42.640;23.372;2023-11-19T14:00:48;4.45;;;4.05;;
69369;SDS011;56530;42.640;23.372;2023-11-19T14:03:15;5.55;;;3.72;;
69369;SDS011;56530;42.640;23.372;2023-11-19T14:05:41;3.93;;;3.63;;
69369;SDS011;56530;42.640;23.372;2023-11-19T14:08:07;3.53;;;3.22;;
69369;SDS011;56530;42.640;23.372;2023-11-19T14:10:41;4.45;;;3.80;;
69369;SDS011;56530;42.640;23.372;2023-11-19T14:13:07;4.40;;;3.20;;
69369;SDS011;56530;42.640;23.372;2023-11-19T14:15:32;4.30;;;3.90;;
69369;SDS011;56530;42.640;23.372;2023-11-19T14:17:57;3.90;;;3.60;;
69369;SDS011;56530;42.640;23.372;2023-11-19T14:20:23;3.38;;;3.17;;
69369;SDS011;56530;42.640;23.372;2023-11-19T14:22:49;3.70;;;3.40;;
69369;SDS011;56530;42.640;23.372;2023-11-19T14:25:16;4.00;;;3.70;;
69369;SDS011;56530;42.640;23.372;2023-11-19T14:27:42;3.70;;;3.40;;
69369;SDS011;56530;42.640;23.372;2023-11-19T14:30:09;4.63;;;4.10;;
69369;SDS011;56530;42.640;23.372;2023-11-19T14:32:39;4.43;;;4.03;;
69369;SDS011;56530;42.640;23.372;2023-11-19T14:35:10;3.92;;;3.63;;
69369;SDS011;56530;42.640;23.372;2023-11-19T14:37:36;3.70;;;3.40;;
69369;SDS011;56530;42.640;23.372;2023-11-19T14:40:01;3.83;;;3.47;;
69369;SDS011;56530;42.640;23.372;2023-11-19T14:42:29;3.70;;;3.40;;
69369;SDS011;56530;42.640;23.372;2023-11-19T14:44:55;4.53;;;4.13;;
69369;SDS011;56530;42.640;23.372;2023-11-19T14:47:20;4.13;;;3.77;;
69369;SDS011;56530;42.640;23.372;2023-11-19T14:49:46;3.60;;;3.33;;
69369;SDS011;56530;42.640;23.372;2023-11-19T14:52:12;4.60;;;4.20;;
69369;SDS011;56530;42.640;23.372;2023-11-19T14:54:38;4.40;;;3.93;;
69369;SDS011;56530;42.640;23.372;2023-11-19T14:57:04;4.70;;;4.20;;
69369;SDS011;56530;42.640;23.372;2023-11-19T14:59:29;4.67;;;4.27;;
69369;SDS011;56530;42.640;23.372;2023-11-19T15:01:55;5.23;;;4.73;;
69369;SDS011;56530;42.640;23.372;2023-11-19T15:04:20;4.97;;;4.57;;
69369;SDS011;56530;42.640;23.372;2023-11-19T15:06:46;8.52;;;6.57;;
69369;SDS011;56530;42.640;23.372;2023-11-19T15:09:11;5.40;;;4.90;;
69369;SDS011;56530;42.640;23.372;2023-11-19T15:11:42;5.32;;;4.82;;
69369;SDS011;56530;42.640;23.372;2023-11-19T15:14:11;8.07;;;4.93;;
69369;SDS011;56530;42.640;23.372;2023-11-19T15:16:40;4.23;;;3.93;;
69369;SDS011;56530;42.640;23.372;2023-11-19T15:19:05;5.17;;;4.67;;
69369;SDS011;56530;42.640;23.372;2023-11-19T15:21:32;5.13;;;4.63;;
69369;SDS011;56530;42.640;23.372;2023-11-19T15:23:57;4.97;;;4.47;;
69369;SDS011;56530;42.640;23.372;2023-11-19T15:26:23;5.40;;;4.90;;
69369;SDS011;56530;42.640;23.372;2023-11-19T15:28:48;5.20;;;4.70;;
69369;SDS011;56530;42.640;23.372;2023-11-19T15:31:13;5.23;;;4.73;;
69369;SDS011;56530;42.640;23.372;2023-11-19T15:33:41;4.97;;;4.57;;
69369;SDS011;56530;42.640;23.372;2023-11-19T15:36:07;7.07;;;5.87;;
69369;SDS011;56530;42.640;23.372;2023-11-19T15:38:33;6.40;;;5.78;;
69369;SDS011;56530;42.640;23.372;2023-11-19T15:40:59;7.07;;;5.60;;
69369;SDS011;56530;42.640;23.372;2023-11-19T15:43:24;5.90;;;5.40;;
69369;SDS011;56530;42.640;23.372;2023-11-19T15:45:50;7.23;;;4.83;;
69369;SDS011;56530;42.640;23.372;2023-11-19T15:48:15;7.87;;;5.70;;
69369;SDS011;56530;42.640;23.372;2023-11-19T15:50:40;5.88;;;5.38;;
69369;SDS011;56530;42.640;23.372;2023-11-19T15:53:09;5.83;;;5.10;;
69369;SDS011;56530;42.640;23.372;2023-11-19T15:55:34;5.57;;;5.07;;
69369;SDS011;56530;42.640;23.372;2023-11-19T15:58:00;6.30;;;5.67;;
69369;SDS011;56530;42.640;23.372;2023-11-19T16:00:26;6.30;;;5.70;;
69369;SDS011;56530;42.640;23.372;2023-11-19T16:02:51;6.40;;;5.80;;
69369;SDS011;56530;42.640;23.372;2023-11-19T16:05:18;5.80;;;5.30;;
69369;SDS011;56530;42.640;23.372;2023-11-19T16:07:43;7.63;;;5.17;;
69369;SDS011;56530;42.640;23.372;2023-11-19T16:10:09;6.05;;;5.53;;
69369;SDS011;56530;42.640;23.372;2023-11-19T16:12:37;7.22;;;5.72;;
69369;SDS011;56530;42.640;23.372;2023-11-19T16:15:02;6.25;;;5.45;;
69369;SDS011;56530;42.640;23.372;2023-11-19T16:17:28;8.70;;;5.50;;
69369;SDS011;56530;42.640;23.372;2023-11-19T16:19:54;6.37;;;5.77;;
69369;SDS011;56530;42.640;23.372;2023-11-19T16:22:20;11.47;;;6.57;;
69369;SDS011;56530;42.640;23.372;2023-11-19T16:24:45;7.18;;;6.47;;
69369;SDS011;56530;42.640;23.372;2023-11-19T16:27:13;7.50;;;6.80;;
69369;SDS011;56530;42.640;23.372;2023-11-19T16:29:39;11.27;;;7.23;;
69369;SDS011;56530;42.640;23.372;2023-11-19T16:32:05;7.80;;;7.10;;
69369;SDS011;56530;42.640;23.372;2023-11-19T16:34:31;7.97;;;7.17;;
69369;SDS011;56530;42.640;23.372;2023-11-19T16:37:02;7.40;;;6.60;;
69369;SDS011;56530;42.640;23.372;2023-11-19T16:39:28;7.37;;;6.60;;
69369;SDS011;56530;42.640;23.372;2023-11-19T16:41:55;9.27;;;7.60;;
69369;SDS011;56530;42.640;23.372;2023-11-19T16:44:22;11.10;;;7.97;;
69369;SDS011;56530;42.640;23.372;2023-11-19T16:46:47;11.47;;;10.37;;
69369;SDS011;56530;42.640;23.372;2023-11-19T16:49:13;9.17;;;8.23;;
69369;SDS011;56530;42.640;23.372;2023-11-19T16:51:38;10.43;;;8.80;;
69369;SDS011;56530;42.640;23.372;2023-11-19T16:54:04;12.43;;;9.03;;
69369;SDS011;56530;42.640;23.372;2023-11-19T16:56:30;10.00;;;9.00;;
69369;SDS011;56530;42.640;23.372;2023-11-19T16:58:59;10.50;;;9.37;;
69369;SDS011;56530;42.640;23.372;2023-11-19T17:01:25;8.50;;;7.67;;
69369;SDS011;56530;42.640;23.372;2023-11-19T17:03:50;13.23;;;11.23;;
69369;SDS011;56530;42.640;23.372;2023-11-19T17:06:16;16.43;;;11.90;;
69369;SDS011;56530;42.640;23.372;2023-11-19T17:08:42;15.13;;;12.73;;
69369;SDS011;56530;42.640;23.372;2023-11-19T17:11:07;15.87;;;12.50;;
69369;SDS011;56530;42.640;23.372;2023-11-19T17:13:33;14.73;;;13.17;;
69369;SDS011;56530;42.640;23.372;2023-11-19T17:16:00;16.27;;;14.40;;
69369;SDS011;56530;42.640;23.372;2023-11-19T17:18:25;17.47;;;13.87;;
69369;SDS011;56530;42.640;23.372;2023-11-19T17:20:51;16.50;;;13.00;;
69369;SDS011;56530;42.640;23.372;2023-11-19T17:23:18;18.37;;;14.90;;
69369;SDS011;56530;42.640;23.372;2023-11-19T17:25:43;15.40;;;12.03;;
69369;SDS011;56530;42.640;23.372;2023-11-19T17:28:09;19.23;;;14.47;;
69369;SDS011;56530;42.640;23.372;2023-11-19T17:30:35;16.93;;;14.33;;
69369;SDS011;56530;42.640;23.372;2023-11-19T17:33:01;17.00;;;14.57;;
69369;SDS011;56530;42.640;23.372;2023-11-19T17:35:27;17.00;;;12.37;;
69369;SDS011;56530;42.640;23.372;2023-11-19T17:37:53;13.77;;;11.63;;
69369;SDS011;56530;42.640;23.372;2023-11-19T17:40:19;14.00;;;12.13;;
69369;SDS011;56530;42.640;23.372;2023-11-19T17:42:46;13.30;;;10.73;;
69369;SDS011;56530;42.640;23.372;2023-11-19T17:45:11;10.93;;;9.47;;
69369;SDS011;56530;42.640;23.372;2023-11-19T17:47:37;15.37;;;11.77;;
69369;SDS011;56530;42.640;23.372;2023-11-19T17:50:03;14.67;;;12.37;;
69369;SDS011;56530;42.640;23.372;2023-11-19T17:52:30;14.47;;;11.60;;
69369;SDS011;56530;42.640;23.372;2023-11-19T17:54:57;10.57;;;9.50;;
69369;SDS011;56530;42.640;23.372;2023-11-19T17:57:22;14.47;;;11.23;;
69369;SDS011;56530;42.640;23.372;2023-11-19T17:59:48;11.77;;;10.50;;
69369;SDS011;56530;42.640;23.372;2023-11-19T18:02:15;12.57;;;10.57;;
69369;SDS011;56530;42.640;23.372;2023-11-19T18:04:44;10.37;;;9.27;;
69369;SDS011;56530;42.640;23.372;2023-11-19T18:07:09;11.77;;;10.20;;
69369;SDS011;56530;42.640;23.372;2023-11-19T18:09:35;12.37;;;10.33;;
69369;SDS011;56530;42.640;23.372;2023-11-19T18:12:00;9.80;;;8.80;;
69369;SDS011;56530;42.640;23.372;2023-11-19T18:14:26;9.73;;;8.77;;
69369;SDS011;56530;42.640;23.372;2023-11-19T18:16:51;13.70;;;9.83;;
69369;SDS011;56530;42.640;23.372;2023-11-19T18:19:17;12.00;;;10.03;;
69369;SDS011;56530;42.640;23.372;2023-11-19T18:21:43;10.47;;;9.37;;
69369;SDS011;56530;42.640;23.372;2023-11-19T18:24:09;9.97;;;8.87;;
69369;SDS011;56530;42.640;23.372;2023-11-19T18:26:35;9.60;;;8.60;;
69369;SDS011;56530;42.640;23.372;2023-11-19T18:29:00;9.73;;;8.77;;
69369;SDS011;56530;42.640;23.372;2023-11-19T18:31:25;11.20;;;9.17;;
69369;SDS011;56530;42.640;23.372;2023-11-19T18:33:51;9.63;;;8.53;;
69369;SDS011;56530;42.640;23.372;2023-11-19T18:36:16;8.80;;;7.90;;
69369;SDS011;56530;42.640;23.372;2023-11-19T18:38:42;10.17;;;6.80;;
69369;SDS011;56530;42.640;23.372;2023-11-19T18:41:07;7.57;;;6.77;;
69369;SDS011;56530;42.640;23.372;2023-11-19T18:43:33;6.37;;;5.70;;
69369;SDS011;56530;42.640;23.372;2023-11-19T18:45:58;5.73;;;5.23;;
69369;SDS011;56530;42.640;23.372;2023-11-19T18:48:23;15.80;;;12.30;;
69369;SDS011;56530;42.640;23.372;2023-11-19T18:50:49;7.40;;;6.33;;
69369;SDS011;56530;42.640;23.372;2023-11-19T18:53:15;6.10;;;5.50;;
69369;SDS011;56530;42.640;23.372;2023-11-19T18:55:40;6.83;;;6.20;;
69369;SDS011;56530;42.640;23.372;2023-11-19T18:58:06;7.57;;;5.50;;
69369;SDS011;56530;42.640;23.372;2023-11-19T19:00:31;6.97;;;6.00;;
69369;SDS011;56530;42.640;23.372;2023-11-19T19:02:57;6.07;;;5.25;;
69369;SDS011;56530;42.640;23.372;2023-11-19T19:05:22;8.45;;;5.50;;
69369;SDS011;56530;42.640;23.372;2023-11-19T19:07:48;5.55;;;4.97;;
69369;SDS011;56530;42.640;23.372;2023-11-19T19:10:13;5.72;;;5.15;;
69369;SDS011;56530;42.640;23.372;2023-11-19T19:12:39;7.22;;;5.22;;
69369;SDS011;56530;42.640;23.372;2023-11-19T19:15:07;6.15;;;5.07;;
69369;SDS011;56530;42.640;23.372;2023-11-19T19:17:39;8.20;;;7.47;;
69369;SDS011;56530;42.640;23.372;2023-11-19T19:20:05;10.45;;;9.35;;
69369;SDS011;56530;42.640;23.372;2023-11-19T19:22:32;13.70;;;12.18;;
69369;SDS011;56530;42.640;23.372;2023-11-19T19:24:58;15.18;;;11.88;;
69369;SDS011;56530;42.640;23.372;2023-11-19T19:27:24;15.32;;;12.68;;
69369;SDS011;56530;42.640;23.372;2023-11-19T19:29:49;18.52;;;12.70;;
69369;SDS011;56530;42.640;23.372;2023-11-19T19:32:14;13.13;;;11.73;;
69369;SDS011;56530;42.640;23.372;2023-11-19T19:34:40;13.07;;;11.38;;
69369;SDS011;56530;42.640;23.372;2023-11-19T19:37:05;16.77;;;11.32;;
69369;SDS011;56530;42.640;23.372;2023-11-19T19:39:32;17.08;;;11.93;;
69369;SDS011;56530;42.640;23.372;2023-11-19T19:41:58;17.83;;;12.45;;
69369;SDS011;56530;42.640;23.372;2023-11-19T19:44:24;19.65;;;14.48;;
69369;SDS011;56530;42.640;23.372;2023-11-19T19:46:51;15.93;;;13.13;;
69369;SDS011;56530;42.640;23.372;2023-11-19T19:49:16;14.20;;;12.70;;
69369;SDS011;56530;42.640;23.372;2023-11-19T19:51:42;14.83;;;12.23;;
69369;SDS011;56530;42.640;23.372;2023-11-19T19:54:08;14.73;;;12.67;;
69369;SDS011;56530;42.640;23.372;2023-11-19T19:56:33;14.37;;;11.20;;
69369;SDS011;56530;42.640;23.372;2023-11-19T19:58:59;15.30;;;13.10;;
69369;SDS011;56530;42.640;23.372;2023-11-19T20:01:24;16.10;;;13.17;;
69369;SDS011;56530;42.640;23.372;2023-11-19T20:03:50;13.53;;;12.13;;
69369;SDS011;56530;42.640;23.372;2023-11-19T20:06:16;12.87;;;11.47;;
69369;SDS011;56530;42.640;23.372;2023-11-19T20:08:46;14.37;;;12.07;;
69369;SDS011;56530;42.640;23.372;2023-11-19T20:11:14;17.37;;;12.03;;
69369;SDS011;56530;42.640;23.372;2023-11-19T20:13:39;15.20;;;11.37;;
69369;SDS011;56530;42.640;23.372;2023-11-19T20:16:05;15.10;;;11.77;;
69369;SDS011;56530;42.640;23.372;2023-11-19T20:18:32;14.10;;;12.60;;
69369;SDS011;56530;42.640;23.372;2023-11-19T20:20:57;14.47;;;10.87;;
69369;SDS011;56530;42.640;23.372;2023-11-19T20:23:23;13.10;;;10.47;;
69369;SDS011;56530;42.640;23.372;2023-11-19T20:25:48;15.60;;;11.40;;
69369;SDS011;56530;42.640;23.372;2023-11-19T20:28:14;12.03;;;10.73;;
69369;SDS011;56530;42.640;23.372;2023-11-19T20:30:39;12.80;;;10.00;;
69369;SDS011;56530;42.640;23.372;2023-11-19T20:33:05;12.10;;;10.80;;
69369;SDS011;56530;42.640;23.372;2023-11-19T20:35:30;14.70;;;10.67;;
69369;SDS011;56530;42.640;23.372;2023-11-19T20:37:56;11.43;;;9.90;;
69369;SDS011;56530;42.640;23.372;2023-11-19T20:40:22;15.63;;;10.77;;
69369;SDS011;56530;42.640;23.372;2023-11-19T20:42:47;13.93;;;10.70;;
69369;SDS011;56530;42.640;23.372;2023-11-19T20:45:13;11.93;;;10.73;;
69369;SDS011;56530;42.640;23.372;2023-11-19T20:47:38;14.63;;;11.40;;
69369;SDS011;56530;42.640;23.372;2023-11-19T20:50:04;14.00;;;12.32;;
69369;SDS011;56530;42.640;23.372;2023-11-19T20:52:36;17.30;;;13.63;;
69369;SDS011;56530;42.640;23.372;2023-11-19T20:55:02;17.97;;;14.90;;
69369;SDS011;56530;42.640;23.372;2023-11-19T20:57:28;24.83;;;19.83;;
69369;SDS011;56530;42.640;23.372;2023-11-19T20:59:54;21.13;;;17.47;;
69369;SDS011;56530;42.640;23.372;2023-11-19T21:02:19;20.70;;;15.57;;
69369;SDS011;56530;42.640;23.372;2023-11-19T21:04:46;19.13;;;15.57;;
69369;SDS011;56530;42.640;23.372;2023-11-19T21:07:12;17.73;;;14.03;;
69369;SDS011;56530;42.640;23.372;2023-11-19T21:09:38;17.80;;;13.70;;
69369;SDS011;56530;42.640;23.372;2023-11-19T21:12:03;18.30;;;14.30;;
69369;SDS011;56530;42.640;23.372;2023-11-19T21:14:29;19.80;;;15.63;;
69369;SDS011;56530;42.640;23.372;2023-11-19T21:16:55;19.13;;;15.27;;
69369;SDS011;56530;42.640;23.372;2023-11-19T21:19:20;19.13;;;14.97;;
69369;SDS011;56530;42.640;23.372;2023-11-19T21:21:46;18.87;;;15.30;;
69369;SDS011;56530;42.640;23.372;2023-11-19T21:24:11;18.33;;;15.23;;
69369;SDS011;56530;42.640;23.372;2023-11-19T21:26:37;19.97;;;17.10;;
69369;SDS011;56530;42.640;23.372;2023-11-19T21:29:02;19.57;;;15.77;;
69369;SDS011;56530;42.640;23.372;2023-11-19T21:31:27;18.00;;;15.43;;
69369;SDS011;56530;42.640;23.372;2023-11-19T21:33:53;18.10;;;14.90;;
69369;SDS011;56530;42.640;23.372;2023-11-19T21:36:18;19.83;;;14.10;;
69369;SDS011;56530;42.640;23.372;2023-11-19T21:38:45;17.37;;;14.50;;
69369;SDS011;56530;42.640;23.372;2023-11-19T21:41:12;14.93;;;13.40;;
69369;SDS011;56530;42.640;23.372;2023-11-19T21:43:38;16.20;;;13.88;;
69369;SDS011;56530;42.640;23.372;2023-11-19T21:46:03;16.27;;;14.50;;
69369;SDS011;56530;42.640;23.372;2023-11-19T21:48:29;18.73;;;13.80;;
69369;SDS011;56530;42.640;23.372;2023-11-19T21:50:55;17.80;;;12.70;;
69369;SDS011;56530;42.640;23.372;2023-11-19T21:53:21;15.07;;;13.47;;
69369;SDS011;56530;42.640;23.372;2023-11-19T21:55:46;16.47;;;14.07;;
69369;SDS011;56530;42.640;23.372;2023-11-19T21:58:12;15.43;;;12.80;;
69369;SDS011;56530;42.640;23.372;2023-11-19T22:00:37;15.50;;;13.03;;
69369;SDS011;56530;42.640;23.372;2023-11-19T22:03:03;13.93;;;12.43;;
69369;SDS011;56530;42.640;23.372;2023-11-19T22:05:29;13.40;;;11.33;;
69369;SDS011;56530;42.640;23.372;2023-11-19T22:07:55;16.63;;;13.13;;
69369;SDS011;56530;42.640;23.372;2023-11-19T22:10:20;13.03;;;11.67;;
69369;SDS011;56530;42.640;23.372;2023-11-19T22:12:45;14.43;;;11.07;;
69369;SDS011;56530;42.640;23.372;2023-11-19T22:15:11;14.63;;;12.17;;
69369;SDS011;56530;42.640;23.372;2023-11-19T22:17:37;13.63;;;11.23;;
69369;SDS011;56530;42.640;23.372;2023-11-19T22:20:05;12.73;;;11.27;;
69369;SDS011;56530;42.640;23.372;2023-11-19T22:22:32;15.93;;;12.40;;
69369;SDS011;56530;42.640;23.372;2023-11-19T22:24:57;12.87;;;11.13;;
69369;SDS011;56530;42.640;23.372;2023-11-19T22:27:23;12.83;;;11.43;;
69369;SDS011;56530;42.640;23.372;2023-11-19T22:29:49;12.83;;;11.27;;
69369;SDS011;56530;42.640;23.372;2023-11-19T22:32:14;12.43;;;11.13;;
69369;SDS011;56530;42.640;23.372;2023-11-19T22:34:39;13.37;;;11.97;;
69369;SDS011;56530;42.640;23.372;2023-11-19T22:37:05;14.30;;;11.93;;
69369;SDS011;56530;42.640;23.372;2023-11-19T22:39:31;14.27;;;12.20;;
69369;SDS011;56530;42.640;23.372;2023-11-19T22:41:56;13.43;;;12.03;;
69369;SDS011;56530;42.640;23.372;2023-11-19T22:44:21;13.33;;;12.03;;
69369;SDS011;56530;42.640;23.372;2023-11-19T22:46:48;13.10;;;10.83;;
69369;SDS011;56530;42.640;23.372;2023-11-19T22:49:13;12.80;;;11.43;;
69369;SDS011;56530;42.640;23.372;2023-11-19T22:51:39;13.10;;;11.47;;
69369;SDS011;56530;42.640;23.372;2023-11-19T22:54:04;13.43;;;11.88;;
69369;SDS011;56530;42.640;23.372;2023-11-19T22:56:30;12.70;;;10.33;;
69369;SDS011;56530;42.640;23.372;2023-11-19T22:58:55;10.80;;;9.43;;
69369;SDS011;56530;42.640;23.372;2023-11-19T23:01:21;12.20;;;11.00;;
69369;SDS011;56530;42.640;23.372;2023-11-19T23:03:46;12.40;;;10.90;;
69369;SDS011;56530;42.640;23.372;2023-11-19T23:06:11;11.97;;;10.23;;
69369;SDS011;56530;42.640;23.372;2023-11-19T23:08:37;11.70;;;9.90;;
69369;SDS011;56530;42.640;23.372;2023-11-19T23:11:04;10.97;;;9.87;;
69369;SDS011;56530;42.640;23.372;2023-11-19T23:13:32;10.30;;;9.20;;
69369;SDS011;56530;42.640;23.372;2023-11-19T23:15:58;11.20;;;9.13;;
69369;SDS011;56530;42.640;23.372;2023-11-19T23:18:24;12.85;;;10.30;;
69369;SDS011;56530;42.640;23.372;2023-11-19T23:20:50;11.73;;;9.65;;
69369;SDS011;56530;42.640;23.372;2023-11-19T23:23:15;11.00;;;9.53;;
69369;SDS011;56530;42.640;23.372;2023-11-19T23:25:41;10.30;;;9.02;;
69369;SDS011;56530;42.640;23.372;2023-11-19T23:28:06;11.93;;;8.70;;
69369;SDS011;56530;42.640;23.372;2023-11-19T23:30:34;9.67;;;8.50;;
69369;SDS011;56530;42.640;23.372;2023-11-19T23:33:00;8.07;;;7.27;;
69369;SDS011;56530;42.640;23.372;2023-11-19T23:35:25;9.40;;;8.43;;
69369;SDS011;56530;42.640;23.372;2023-11-19T23:37:51;10.37;;;8.70;;
69369;SDS011;56530;42.640;23.372;2023-11-19T23:40:17;9.27;;;8.38;;
69369;SDS011;56530;42.640;23.372;2023-11-19T23:42:43;9.32;;;8.30;;